Cubero, New Mexico
Current Conditions -  °F | °C
As of 11:57 PM on Wednesday 26 Nov 2014 (Local Time) from KGNT Reporting Station
Clear Clear  
Wind Chill: 13°   Ceiling: Unl
Heat Index: 25°   Visibility: 10mi
Dew Point: 12°   Wind: 14mph
Humidity: 59%   Direction: 310°NW
Pressure: 30.5"   Gusts: NA
Location:  35.08°N, 107.52°W
Report Text: KGNT 270657Z AUTO 31012KT 10SM CLR M04/M11 A3050 RMK AO2
Loading
Personal Weather Stations






























Interactive Weather Map New forecast layout! Learn more

10-Day Weather Forecast

Advertisements
Track Severe Weather on mobile